Time;durP1;ratioP1;P1;durP2;ratioP2;P2;SDS_P1;SDS_P2;PMS_P1;PMS_P2;Temp;Humidity;BMP_temperature;BMP_pressure;BME280_temperature;BME280_humidity;BME280_pressure;Samples;Min_cycle;Max_cycle;Signal;HPM_P1;HPM_P2
2022/01/08 00:01:29;;;;;;;16.05;8.18;;;;;;;0.24;94.98;100944.84;4972665;28;20034;-74
2022/01/08 00:03:54;;;;;;;25.27;8.63;;;;;;;0.24;94.96;100946.63;4984805;28;20084;-75
2022/01/08 00:06:20;;;;;;;17.92;8.27;;;;;;;0.23;94.89;100944.84;4975956;28;20480;-74
2022/01/08 00:08:45;;;;;;;21.13;8.65;;;;;;;0.21;94.67;100946.72;4985821;28;20077;-75
2022/01/08 00:11:14;;;;;;;17.50;8.27;;;;;;;0.19;94.95;100949.44;4988536;28;20034;-75
2022/01/08 00:13:40;;;;;;;17.25;8.77;;;;;;;0.17;95.00;100940.56;4985484;28;20423;-75
2022/01/08 00:16:06;;;;;;;20.50;8.50;;;;;;;0.19;95.09;100948.56;4982865;28;20608;-75
2022/01/08 00:18:32;;;;;;;16.35;8.70;;;;;;;0.18;95.03;100950.34;4989321;28;20100;-74
2022/01/08 00:20:57;;;;;;;14.45;8.32;;;;;;;0.18;94.88;100955.69;4976090;28;20467;-75
2022/01/08 00:23:23;;;;;;;18.25;8.35;;;;;;;0.15;94.84;100957.59;4987557;28;20084;-74
2022/01/08 00:25:49;;;;;;;14.57;7.55;;;;;;;0.16;94.95;100956.66;4977154;28;20069;-75
2022/01/08 00:28:14;;;;;;;14.48;7.35;;;;;;;0.12;94.68;100952.31;4985245;28;20034;-75
2022/01/08 00:30:39;;;;;;;15.27;8.52;;;;;;;0.10;95.45;100949.69;4986773;28;20475;-76
2022/01/08 00:33:05;;;;;;;16.67;8.23;;;;;;;0.11;94.85;100956.78;4988447;28;20058;-75
2022/01/08 00:35:32;;;;;;;17.38;8.30;;;;;;;0.08;94.86;100964.88;4970705;28;20117;-76
2022/01/08 00:37:58;;;;;;;15.90;8.68;;;;;;;0.04;95.03;100963.22;4979382;28;20511;-74
2022/01/08 00:40:23;;;;;;;15.82;8.13;;;;;;;0.04;94.82;100962.34;4984240;28;20580;-76
2022/01/08 00:42:48;;;;;;;18.00;8.57;;;;;;;0.01;94.84;100968.66;4977346;28;20439;-74
2022/01/08 00:45:14;;;;;;;12.15;8.15;;;;;;;0.03;94.96;100969.50;4978277;28;20574;-75
2022/01/08 00:47:39;;;;;;;15.82;8.35;;;;;;;0.00;95.03;100966.91;4987688;28;20479;-74
2022/01/08 00:50:05;;;;;;;15.07;7.93;;;;;;;0.03;94.82;100984.66;4985889;28;20042;-75
2022/01/08 00:52:31;;;;;;;19.05;7.88;;;;;;;0.01;94.79;100994.53;4973449;28;20479;-75
2022/01/08 00:54:56;;;;;;;21.15;9.30;;;;;;;0.00;94.76;100996.34;4983616;28;20093;-75
2022/01/08 00:57:22;;;;;;;14.82;8.23;;;;;;;0.01;94.90;101002.56;4978294;28;20033;-75
2022/01/08 00:59:47;;;;;;;16.60;8.13;;;;;;;0.02;94.70;101002.50;4986406;28;20030;-76
2022/01/08 01:02:12;;;;;;;19.52;8.18;;;;;;;0.01;94.88;100994.53;4983391;28;20117;-74
2022/01/08 01:04:38;;;;;;;20.63;8.65;;;;;;;0.02;95.00;100999.84;4983137;28;20085;-75
2022/01/08 01:07:03;;;;;;;15.60;8.15;;;;;;;0.04;95.13;100981.06;4982251;28;20030;-76
2022/01/08 01:09:28;;;;;;;21.33;7.88;;;;;;;0.08;95.09;100986.28;4986809;28;20029;-74
2022/01/08 01:11:57;;;;;;;14.40;7.95;;;;;;;0.11;95.34;100980.00;4986448;28;20666;-74
2022/01/08 01:14:25;;;;;;;16.08;8.65;;;;;;;0.11;95.13;100980.00;4985932;28;20465;-75
2022/01/08 01:16:50;;;;;;;14.25;8.90;;;;;;;0.08;94.85;100986.28;4980030;28;20042;-73
2022/01/08 01:19:16;;;;;;;15.38;7.50;;;;;;;0.06;94.87;100981.91;4987767;28;20084;-76
2022/01/08 01:21:41;;;;;;;18.58;7.95;;;;;;;0.03;94.78;100977.50;4978909;28;20076;-76
2022/01/08 01:24:13;;;;;;;13.02;7.28;;;;;;;0.03;94.49;100976.63;4979946;28;20065;-74
2022/01/08 01:26:46;;;;;;;13.52;8.05;;;;;;;-0.02;94.73;100974.97;4986170;28;20416;-74
2022/01/08 01:29:29;;;;;;;18.98;8.38;;;;;;;-0.08;94.74;100974.25;4979318;28;20050;-73
2022/01/08 01:43:19;;;;;;;16.70;9.32;;;;;;;-0.16;95.02;100984.28;4978067;28;20112;-77
2022/01/08 01:48:24;;;;;;;17.52;9.48;;;;;;;-0.15;95.36;100999.38;4987239;28;20096;-77
2022/01/08 01:50:49;;;;;;;20.55;10.75;;;;;;;-0.14;95.12;100994.03;4978921;28;20030;-77
2022/01/08 01:53:15;;;;;;;16.92;10.15;;;;;;;-0.10;95.44;100994.78;4987425;28;20034;-76
2022/01/08 01:55:42;;;;;;;22.08;11.30;;;;;;;-0.11;95.32;100990.38;4980770;28;20026;-75
2022/01/08 01:58:07;;;;;;;18.63;9.82;;;;;;;-0.12;95.13;100986.81;4980740;28;20030;-74
2022/01/08 02:00:33;;;;;;;25.08;10.70;;;;;;;-0.12;95.34;100985.94;4981040;28;20538;-74
2022/01/08 02:02:59;;;;;;;21.48;10.73;;;;;;;-0.14;95.43;100987.78;4987644;28;20064;-76
2022/01/08 02:05:25;;;;;;;23.75;11.60;;;;;;;-0.19;95.27;100974.53;4972089;28;20030;-76
2022/01/08 02:07:51;;;;;;;18.95;10.52;;;;;;;-0.20;95.13;100980.78;4978926;28;20038;-74
2022/01/08 02:10:16;;;;;;;21.42;10.93;;;;;;;-0.23;95.09;100975.53;4985052;28;20033;-76
2022/01/08 02:12:41;;;;;;;22.60;11.70;;;;;;;-0.26;95.13;100983.63;4987550;28;20101;-74
2022/01/08 02:15:07;;;;;;;18.30;11.52;;;;;;;-0.28;94.83;100996.16;4984837;28;20081;-77
2022/01/08 02:17:33;;;;;;;21.45;11.60;;;;;;;-0.31;95.06;100991.78;4982248;28;20038;-73
2022/01/08 02:19:58;;;;;;;23.52;11.98;;;;;;;-0.37;95.27;100994.59;4986528;28;20026;-76
2022/01/08 02:22:23;;;;;;;20.48;12.23;;;;;;;-0.37;95.34;100997.28;4983523;28;20040;-73
2022/01/08 02:24:49;;;;;;;24.23;12.82;;;;;;;-0.39;95.32;100993.75;4984392;28;20498;-74
2022/01/08 02:27:16;;;;;;;23.02;11.20;;;;;;;-0.42;95.41;100993.84;4986499;28;20074;-75
2022/01/08 02:29:42;;;;;;;20.30;12.13;;;;;;;-0.42;95.71;100996.53;4983070;28;20034;-76
2022/01/08 02:32:17;;;;;;;24.35;13.75;;;;;;;-0.44;95.67;100995.66;4982559;28;20124;-74
2022/01/08 02:34:44;;;;;;;25.02;13.15;;;;;;;-0.44;95.72;101000.13;4983546;28;20057;-77
2022/01/08 02:37:09;;;;;;;28.35;13.48;;;;;;;-0.43;95.86;101008.09;4985609;28;20058;-78
2022/01/08 02:39:41;;;;;;;27.67;14.02;;;;;;;-0.44;95.85;100997.47;4989468;28;20018;-78
2022/01/08 02:42:08;;;;;;;23.10;14.30;;;;;;;-0.45;95.82;101007.28;4980879;28;20033;-75
2022/01/08 02:44:34;;;;;;;27.08;13.18;;;;;;;-0.44;95.90;101002.81;4987050;28;20104;-74
2022/01/08 02:47:00;;;;;;;28.83;14.98;;;;;;;-0.45;95.61;101009.94;4989864;28;20066;-74
2022/01/08 02:49:25;;;;;;;30.73;14.80;;;;;;;-0.47;96.06;101006.41;4983469;28;20053;-76
2022/01/08 02:51:52;;;;;;;22.92;12.93;;;;;;;-0.49;95.70;101007.38;4977663;28;20041;-75
2022/01/08 02:54:17;;;;;;;30.73;14.35;;;;;;;-0.50;95.96;101008.31;4990331;28;20057;-78
2022/01/08 02:56:45;;;;;;;26.95;13.40;;;;;;;-0.52;96.03;101003.84;4984866;28;20062;-78
2022/01/08 02:59:13;;;;;;;27.55;13.40;;;;;;;-0.53;96.21;101009.25;4982692;28;20024;-74
2022/01/08 03:01:39;;;;;;;32.60;14.38;;;;;;;-0.51;95.93;101015.44;4985605;28;20034;-78
2022/01/08 03:04:05;;;;;;;28.67;14.30;;;;;;;-0.52;95.77;101011.00;4985344;28;20085;-74
2022/01/08 03:06:31;;;;;;;29.52;13.25;;;;;;;-0.51;96.11;101007.44;5001757;28;20038;-77
2022/01/08 03:08:56;;;;;;;23.38;13.45;;;;;;;-0.51;96.73;100999.41;4989738;28;20085;-76
2022/01/08 03:11:22;;;;;;;28.17;13.60;;;;;;;-0.52;96.21;101006.53;4987417;28;20494;-74
2022/01/08 03:13:47;;;;;;;27.58;13.02;;;;;;;-0.50;96.18;101000.28;4989538;28;20037;-75
2022/01/08 03:16:14;;;;;;;27.67;14.45;;;;;;;-0.47;96.41;101017.09;4981761;28;20097;-75
2022/01/08 03:18:40;;;;;;;28.73;13.27;;;;;;;-0.48;96.32;101004.66;4989818;28;20037;-74
2022/01/08 03:21:14;;;;;;;24.63;13.45;;;;;;;-0.47;96.32;101009.09;4986582;28;20037;-74
2022/01/08 03:23:49;;;;;;;27.02;14.02;;;;;;;-0.50;96.17;101003.84;4988249;28;20053;-74
2022/01/08 03:26:18;;;;;;;26.27;14.43;;;;;;;-0.54;96.15;100999.47;4989235;28;20026;-74
2022/01/08 03:28:44;;;;;;;27.65;13.70;;;;;;;-0.53;96.07;101002.09;4979713;28;20030;-73
2022/01/08 03:31:11;;;;;;;27.98;13.30;;;;;;;-0.54;96.48;101002.16;4989177;28;20034;-74
2022/01/08 03:33:37;;;;;;;32.13;13.80;;;;;;;-0.55;95.96;101011.97;4983400;28;20120;-73
2022/01/08 03:36:03;;;;;;;24.23;12.88;;;;;;;-0.54;96.33;101012.84;4987468;28;20089;-73
2022/01/08 03:38:29;;;;;;;32.13;13.35;;;;;;;-0.56;96.41;101006.63;4989120;28;20129;-75
2022/01/08 03:40:55;;;;;;;26.17;13.48;;;;;;;-0.54;96.41;101011.03;4977185;28;20501;-73
2022/01/08 03:43:20;;;;;;;22.38;13.02;;;;;;;-0.55;96.14;101013.75;4983178;28;20027;-75
2022/01/08 03:45:45;;;;;;;25.70;12.18;;;;;;;-0.54;96.21;101020.84;4979945;28;20189;-73
2022/01/08 03:50:42;;;;;;;26.38;13.80;;;;;;;-0.58;96.39;101004.00;4980659;28;20043;-76
2022/01/08 03:53:07;;;;;;;25.67;12.45;;;;;;;-0.57;96.20;101013.78;4985983;28;20453;-75
2022/01/08 03:55:32;;;;;;;27.08;13.13;;;;;;;-0.60;96.00;100999.66;4989275;28;20054;-75
2022/01/08 03:57:57;;;;;;;26.55;12.80;;;;;;;-0.62;96.08;100996.13;4987523;28;20022;-75
2022/01/08 04:00:23;;;;;;;27.00;12.52;;;;;;;-0.64;96.09;101008.63;4987202;28;20096;-74
2022/01/08 04:02:48;;;;;;;24.58;11.63;;;;;;;-0.63;96.53;101015.72;4976398;28;20038;-74
2022/01/08 04:05:13;;;;;;;23.52;11.77;;;;;;;-0.64;96.35;101027.34;4987154;28;20034;-74
2022/01/08 04:07:39;;;;;;;28.95;12.02;;;;;;;-0.67;96.38;101033.63;4980696;28;20026;-75
2022/01/08 04:10:04;;;;;;;23.67;11.73;;;;;;;-0.66;96.20;101034.50;4988470;28;20037;-75
2022/01/08 04:12:41;;;;;;;26.27;12.27;;;;;;;-0.68;96.30;101029.19;4987492;28;20478;-72
2022/01/08 04:17:49;;;;;;;26.02;12.30;;;;;;;-0.65;96.81;101025.59;4988675;28;20046;-73
2022/01/08 04:20:15;;;;;;;26.15;11.88;;;;;;;-0.64;96.89;101019.31;4985182;28;20441;-75
2022/01/08 04:22:40;;;;;;;23.02;12.15;;;;;;;-0.62;96.76;101025.50;4982920;28;20030;-75
2022/01/08 04:25:06;;;;;;;28.17;14.20;;;;;;;-0.61;96.76;101029.91;4983169;28;20031;-74
2022/01/08 04:27:32;;;;;;;21.73;11.77;;;;;;;-0.60;96.54;101031.69;4981274;28;20035;-75
2022/01/08 04:29:57;;;;;;;23.40;12.23;;;;;;;-0.59;96.62;101034.31;4987042;28;20027;-75
2022/01/08 04:32:22;;;;;;;28.13;12.13;;;;;;;-0.59;97.07;101045.00;4982190;28;20456;-76
2022/01/08 04:34:47;;;;;;;23.85;12.38;;;;;;;-0.59;96.55;101053.03;4985594;28;20038;-76
2022/01/08 04:37:14;;;;;;;30.60;13.10;;;;;;;-0.59;96.83;101053.03;4983933;28;20027;-75
2022/01/08 04:39:39;;;;;;;22.60;13.02;;;;;;;-0.59;96.80;101050.34;4986120;28;20029;-73
2022/01/08 04:42:04;;;;;;;30.17;13.23;;;;;;;-0.58;96.51;101049.44;4976347;28;20031;-75
2022/01/08 04:44:30;;;;;;;35.05;14.38;;;;;;;-0.61;96.69;101048.63;4985121;28;20478;-76
2022/01/08 04:46:55;;;;;;;23.67;13.07;;;;;;;-0.59;96.80;101047.69;4987589;28;20026;-75
2022/01/08 04:49:20;;;;;;;25.33;12.13;;;;;;;-0.62;96.71;101045.06;4983636;28;20794;-73
2022/01/08 04:51:46;;;;;;;24.30;12.73;;;;;;;-0.60;97.01;101051.28;4985452;28;20030;-75
2022/01/08 04:54:11;;;;;;;24.45;12.85;;;;;;;-0.59;97.08;101058.38;4984122;28;20031;-76
2022/01/08 04:56:36;;;;;;;25.38;12.60;;;;;;;-0.61;96.90;101057.50;4987817;28;20030;-75
2022/01/08 04:59:02;;;;;;;22.70;12.95;;;;;;;-0.57;97.16;101066.34;4987587;28;20106;-73
2022/01/08 05:01:27;;;;;;;30.20;13.52;;;;;;;-0.57;96.85;101063.66;4975871;28;20073;-75
2022/01/08 05:03:53;;;;;;;23.25;12.50;;;;;;;-0.56;96.90;101065.41;4978475;28;20331;-73
2022/01/08 05:06:18;;;;;;;23.45;13.00;;;;;;;-0.59;96.78;101057.50;4973676;28;20018;-75
2022/01/08 05:08:43;;;;;;;32.05;13.93;;;;;;;-0.60;96.80;101050.41;4976472;28;20026;-76
2022/01/08 05:11:09;;;;;;;26.52;13.95;;;;;;;-0.58;96.68;101067.25;4979182;28;20031;-75
2022/01/08 05:13:34;;;;;;;26.17;12.77;;;;;;;-0.61;96.85;101065.53;4983853;28;20078;-75
2022/01/08 05:16:00;;;;;;;22.83;12.85;;;;;;;-0.60;97.03;101072.66;4983694;28;20043;-72
2022/01/08 05:18:28;;;;;;;25.25;13.77;;;;;;;-0.60;97.06;101078.00;4982065;28;20093;-75
2022/01/08 05:21:06;;;;;;;21.58;11.13;;;;;;;-0.62;96.75;101071.78;4981428;28;20403;-75
2022/01/08 05:23:31;;;;;;;19.75;11.43;;;;;;;-0.60;97.02;101080.66;4981746;28;20101;-75
2022/01/08 05:25:56;;;;;;;25.40;12.55;;;;;;;-0.60;97.43;101067.31;4982565;28;20675;-74
2022/01/08 05:28:22;;;;;;;24.40;11.70;;;;;;;-0.58;97.05;101070.81;4986759;28;20094;-75
2022/01/08 05:30:47;;;;;;;30.63;14.27;;;;;;;-0.59;97.11;101060.16;4986401;28;20041;-74
2022/01/08 05:33:12;;;;;;;25.83;12.80;;;;;;;-0.60;97.02;101061.09;4985152;28;20061;-75
2022/01/08 05:35:37;;;;;;;24.50;12.65;;;;;;;-0.57;97.19;101077.03;4981370;28;20108;-76
2022/01/08 05:38:03;;;;;;;26.27;12.38;;;;;;;-0.56;97.09;101071.69;4981551;28;20026;-75
2022/01/08 05:40:28;;;;;;;28.23;12.68;;;;;;;-0.53;96.39;101070.69;4980257;28;20034;-75
2022/01/08 05:42:53;;;;;;;21.08;11.43;;;;;;;-0.50;97.12;101067.09;4978516;28;20033;-75
2022/01/08 05:45:19;;;;;;;24.95;13.00;;;;;;;-0.50;97.07;101062.63;4985407;28;20485;-73
2022/01/08 05:47:44;;;;;;;24.35;11.32;;;;;;;-0.47;nan;101070.56;4986921;28;20022;-73
2022/01/08 05:50:10;;;;;;;19.85;11.40;;;;;;;-0.48;97.04;101071.47;4983504;28;20132;-75
2022/01/08 05:52:36;;;;;;;21.35;11.50;;;;;;;-0.50;97.02;101076.00;4986076;28;20654;-75
2022/01/08 05:55:01;;;;;;;21.88;10.98;;;;;;;-0.53;96.80;101086.72;4984838;28;20050;-73
2022/01/08 05:57:26;;;;;;;25.25;10.93;;;;;;;-0.55;96.70;101089.44;4982809;28;20029;-73
2022/01/08 05:59:52;;;;;;;20.27;11.00;;;;;;;-0.58;96.62;101085.97;4986004;28;20379;-76
2022/01/08 06:02:17;;;;;;;21.23;10.15;;;;;;;-0.63;96.49;101087.88;4973201;28;20061;-75
2022/01/08 06:04:42;;;;;;;20.38;10.25;;;;;;;-0.66;96.81;101091.47;4982853;28;20030;-75
2022/01/08 06:07:08;;;;;;;21.70;11.32;;;;;;;-0.65;97.00;101105.75;4980512;28;20089;-75
2022/01/08 06:09:33;;;;;;;20.00;11.50;;;;;;;-0.66;96.28;101099.47;4990898;28;20058;-75
2022/01/08 06:11:58;;;;;;;21.60;10.80;;;;;;;-0.66;97.09;101110.16;4990302;28;20474;-73
2022/01/08 06:14:24;;;;;;;25.65;12.23;;;;;;;-0.66;97.10;101104.81;4987363;28;20026;-75
2022/01/08 06:16:49;;;;;;;22.13;11.45;;;;;;;-0.66;97.32;101101.28;4988945;28;20464;-73
2022/01/08 06:19:16;;;;;;;21.88;11.70;;;;;;;-0.64;97.20;101104.81;4989908;28;20598;-75
2022/01/08 06:21:41;;;;;;;19.15;11.70;;;;;;;-0.64;97.42;101107.50;4987702;28;20023;-74
2022/01/08 06:24:07;;;;;;;19.98;11.20;;;;;;;-0.60;97.18;101106.50;4990879;28;20128;-76
2022/01/08 06:26:33;;;;;;;21.63;10.68;;;;;;;-0.61;97.03;101100.25;4988334;28;20026;-75
2022/01/08 06:28:59;;;;;;;24.88;10.25;;;;;;;-0.57;96.91;101101.94;4984328;28;20057;-75
2022/01/08 06:31:25;;;;;;;18.17;10.40;;;;;;;-0.56;97.22;101105.50;4984876;28;20035;-74
2022/01/08 06:33:51;;;;;;;19.48;10.13;;;;;;;-0.56;97.10;101106.41;4983812;28;20506;-75
2022/01/08 06:36:18;;;;;;;24.83;10.32;;;;;;;-0.54;97.07;101115.25;4980501;28;20027;-75
2022/01/08 06:38:44;;;;;;;19.77;9.85;;;;;;;-0.54;97.18;101098.34;4989426;28;20501;-75
2022/01/08 06:41:10;;;;;;;16.80;9.85;;;;;;;-0.52;97.03;101093.84;4990124;28;20030;-75
2022/01/08 06:43:35;;;;;;;20.13;9.68;;;;;;;-0.54;97.03;101085.00;4987339;28;20056;-75
2022/01/08 06:46:01;;;;;;;18.30;10.25;;;;;;;-0.56;96.78;101094.81;4990189;28;20479;-74
2022/01/08 06:48:26;;;;;;;21.58;10.07;;;;;;;-0.59;96.90;101086.88;4990409;28;20438;-75
2022/01/08 06:50:52;;;;;;;20.17;9.57;;;;;;;-0.61;96.68;101083.34;4981552;28;20027;-74
2022/01/08 06:53:17;;;;;;;20.00;10.18;;;;;;;-0.63;96.96;101080.72;4989498;28;20069;-75
2022/01/08 06:55:43;;;;;;;15.35;9.27;;;;;;;-0.61;96.97;101075.34;4980279;28;20467;-74
2022/01/08 06:58:08;;;;;;;18.67;9.85;;;;;;;-0.63;97.01;101080.72;4989211;28;20547;-75
2022/01/08 07:00:33;;;;;;;17.30;10.02;;;;;;;-0.64;97.13;101078.97;4984652;28;20113;-74
2022/01/08 07:02:59;;;;;;;19.85;9.82;;;;;;;-0.67;97.14;101084.38;4990015;28;20453;-73
2022/01/08 07:05:25;;;;;;;18.60;9.20;;;;;;;-0.66;97.13;101083.44;4984201;28;20117;-75
2022/01/08 07:07:50;;;;;;;18.88;9.70;;;;;;;-0.68;97.07;101079.09;4977368;28;20034;-75
2022/01/08 07:10:15;;;;;;;21.20;10.25;;;;;;;-0.70;97.40;101083.56;4988446;28;20023;-75
2022/01/08 07:12:41;;;;;;;27.75;10.38;;;;;;;-0.72;97.04;101080.06;4990193;28;20149;-76
2022/01/08 07:15:07;;;;;;;18.15;10.15;;;;;;;-0.74;97.07;101080.09;4989232;28;20058;-75
2022/01/08 07:17:32;;;;;;;22.08;9.95;;;;;;;-0.78;96.88;101081.94;4976402;28;20754;-75
2022/01/08 07:19:57;;;;;;;20.23;9.80;;;;;;;-0.80;97.03;101082.88;4988395;28;20072;-74
2022/01/08 07:22:23;;;;;;;17.77;9.60;;;;;;;-0.82;96.89;101080.25;4985414;28;20022;-74
2022/01/08 07:24:48;;;;;;;19.55;9.40;;;;;;;-0.85;96.90;101082.09;4988196;28;20018;-75
2022/01/08 07:27:13;;;;;;;20.27;8.95;;;;;;;-0.89;96.72;101081.28;4989099;28;20026;-74
2022/01/08 07:29:39;;;;;;;17.70;9.00;;;;;;;-0.92;96.95;101077.84;4981438;28;20030;-76
2022/01/08 07:32:04;;;;;;;24.40;8.98;;;;;;;-0.90;96.70;101078.66;4989545;28;20089;-73
2022/01/08 07:34:30;;;;;;;18.00;9.38;;;;;;;-0.91;96.83;101075.13;4983297;28;20076;-74
2022/01/08 07:36:55;;;;;;;22.58;9.85;;;;;;;-0.88;97.15;101079.53;4983913;28;20037;-73
2022/01/08 07:39:24;;;;;;;20.05;10.50;;;;;;;-0.87;97.07;101082.16;4987744;28;20061;-75
2022/01/08 07:41:50;;;;;;;22.23;9.63;;;;;;;-0.86;97.12;101075.88;4987389;28;20574;-74
2022/01/08 07:44:15;;;;;;;21.63;9.52;;;;;;;-0.84;97.30;101084.78;4978462;28;20101;-76
2022/01/08 07:46:40;;;;;;;22.90;11.25;;;;;;;-0.81;97.29;101079.34;4979403;28;20018;-76
2022/01/08 07:49:05;;;;;;;19.35;10.07;;;;;;;-0.77;97.69;101083.69;4988291;28;20105;-76
2022/01/08 07:51:31;;;;;;;24.88;8.77;;;;;;;-0.71;97.66;101071.13;4985727;28;20038;-75
2022/01/08 07:53:56;;;;;;;18.67;10.32;;;;;;;-0.65;97.76;101073.69;4989757;28;20439;-76
2022/01/08 07:56:21;;;;;;;23.85;11.65;;;;;;;-0.58;97.70;101073.47;4984488;28;20035;-76
2022/01/08 07:58:47;;;;;;;18.70;9.52;;;;;;;-0.56;97.57;101058.31;4987393;28;20028;-76
2022/01/08 08:01:12;;;;;;;20.98;9.95;;;;;;;-0.54;98.01;101053.78;4980500;28;20116;-73
2022/01/08 08:03:37;;;;;;;24.80;9.82;;;;;;;-0.49;97.71;101059.03;4989274;28;20031;-76
2022/01/08 08:06:02;;;;;;;24.23;11.27;;;;;;;-0.46;97.77;101052.75;4977746;28;20039;-76
2022/01/08 08:08:28;;;;;;;20.58;10.60;;;;;;;-0.41;97.79;101050.84;4980453;28;20038;-75
2022/01/08 08:10:53;;;;;;;20.90;9.73;;;;;;;-0.37;97.71;101064.09;4988484;28;20034;-76
2022/01/08 08:13:21;;;;;;;25.17;9.70;;;;;;;-0.33;97.67;101052.44;4987038;28;20022;-76
2022/01/08 08:15:47;;;;;;;24.98;9.55;;;;;;;-0.27;97.65;101057.59;4987723;28;20105;-76
2022/01/08 08:18:12;;;;;;;23.13;10.10;;;;;;;-0.24;97.85;101045.94;4982210;28;20065;-75
2022/01/08 08:20:39;;;;;;;18.80;9.85;;;;;;;-0.23;97.47;101053.06;4984019;28;20019;-76
2022/01/08 08:23:04;;;;;;;20.83;9.13;;;;;;;-0.20;97.64;101044.94;4987673;28;20441;-75
2022/01/08 08:25:30;;;;;;;25.83;11.25;;;;;;;-0.15;97.64;101044.84;4988090;28;20026;-74
2022/01/08 08:27:55;;;;;;;21.80;10.40;;;;;;;-0.11;97.68;101038.50;4988240;28;20072;-75
2022/01/08 08:30:21;;;;;;;32.08;10.38;;;;;;;-0.08;97.58;101041.97;4980568;28;20081;-76
2022/01/08 08:32:47;;;;;;;24.95;10.90;;;;;;;-0.06;97.42;101037.47;4986505;28;20034;-75
2022/01/08 08:35:12;;;;;;;25.27;10.35;;;;;;;-0.02;97.52;101038.28;4980563;28;20814;-75
2022/01/08 08:37:38;;;;;;;27.65;10.82;;;;;;;0.01;97.36;101035.53;4985883;28;20394;-76
2022/01/08 08:40:04;;;;;;;22.77;10.45;;;;;;;0.03;97.46;101040.81;4988762;28;20378;-76
2022/01/08 08:42:30;;;;;;;20.75;10.07;;;;;;;0.06;97.44;101038.06;4977007;28;20041;-75
2022/01/08 08:44:55;;;;;;;24.27;11.88;;;;;;;0.09;97.38;101032.63;4982261;28;20038;-75
2022/01/08 08:47:20;;;;;;;24.90;11.02;;;;;;;0.08;97.33;101022.84;4987311;28;20402;-76
2022/01/08 08:49:46;;;;;;;33.33;11.45;;;;;;;0.12;97.22;101029.88;4987472;28;20077;-75
2022/01/08 08:52:11;;;;;;;24.73;11.07;;;;;;;0.13;97.28;101027.16;4983064;28;20038;-76
2022/01/08 08:54:39;;;;;;;32.20;11.70;;;;;;;0.14;97.36;101022.69;4982893;28;20037;-76
2022/01/08 08:57:05;;;;;;;28.20;12.13;;;;;;;0.18;97.36;101029.72;4980687;28;20078;-76
2022/01/08 08:59:31;;;;;;;34.05;11.80;;;;;;;0.19;97.01;101027.00;4974324;28;20698;-76
2022/01/08 09:01:56;;;;;;;27.08;12.98;;;;;;;0.23;97.28;101030.47;4985589;28;20481;-75
2022/01/08 09:04:23;;;;;;;24.83;11.30;;;;;;;0.24;97.12;101022.41;4979590;28;20034;-75
2022/01/08 09:06:48;;;;;;;25.90;12.15;;;;;;;0.31;97.25;101024.91;4982563;28;20023;-76
2022/01/08 09:09:14;;;;;;;35.55;13.75;;;;;;;0.34;97.24;101023.03;4984679;28;20041;-76
2022/01/08 09:11:40;;;;;;;32.55;13.70;;;;;;;0.38;97.22;101026.53;4975035;28;20034;-76
2022/01/08 09:14:06;;;;;;;41.75;13.05;;;;;;;0.45;97.00;101030.75;4974568;28;20031;-75
2022/01/08 09:16:31;;;;;;;25.42;12.73;;;;;;;0.40;97.09;101022.00;4984667;28;20556;-76
2022/01/08 09:18:57;;;;;;;35.72;14.45;;;;;;;0.51;97.19;101030.59;4986084;28;20105;-75
2022/01/08 09:21:23;;;;;;;39.00;14.32;;;;;;;0.49;96.92;101019.06;4979391;28;20066;-75
2022/01/08 09:23:48;;;;;;;32.78;13.73;;;;;;;0.56;96.99;101015.31;4981192;28;20049;-75
2022/01/08 09:26:13;;;;;;;33.30;13.20;;;;;;;0.58;97.10;101008.09;4981544;28;20033;-75
2022/01/08 09:28:39;;;;;;;36.28;14.02;;;;;;;0.63;96.75;101005.28;4971064;28;20029;-75
2022/01/08 09:31:06;;;;;;;32.63;13.07;;;;;;;0.67;96.90;101004.28;4978266;28;20741;-75
2022/01/08 09:33:32;;;;;;;29.70;12.82;;;;;;;0.69;96.59;100989.91;4986852;28;20084;-77
2022/01/08 09:35:57;;;;;;;36.30;14.23;;;;;;;0.73;96.50;100996.91;4981689;28;20435;-77
2022/01/08 09:38:23;;;;;;;29.95;13.35;;;;;;;0.77;96.78;100985.19;4980683;28;20034;-74
2022/01/08 09:40:48;;;;;;;29.48;12.85;;;;;;;0.82;96.90;100982.38;4986323;28;20026;-75
2022/01/08 09:43:15;;;;;;;31.83;12.85;;;;;;;0.86;96.73;100984.06;4986412;28;20415;-75
2022/01/08 09:45:40;;;;;;;30.65;13.02;;;;;;;0.91;96.68;100982.09;4988540;28;20034;-75
2022/01/08 09:48:06;;;;;;;32.20;12.18;;;;;;;0.97;96.41;100973.00;4986361;28;20027;-76
2022/01/08 09:50:32;;;;;;;26.55;11.95;;;;;;;1.05;96.46;100972.78;4985461;28;20034;-76
2022/01/08 09:52:58;;;;;;;31.48;13.15;;;;;;;1.12;96.54;100967.19;4991643;28;20030;-77
2022/01/08 09:55:26;;;;;;;28.75;12.93;;;;;;;1.18;96.30;100969.66;4990511;28;20026;-76
2022/01/08 09:57:52;;;;;;;28.42;12.40;;;;;;;1.20;96.05;100957.09;4991372;28;20459;-77
2022/01/08 10:00:18;;;;;;;32.70;12.27;;;;;;;1.24;96.15;100953.38;4984937;28;20088;-76
2022/01/08 10:02:46;;;;;;;27.25;12.23;;;;;;;1.27;96.25;100937.22;4987683;28;20026;-75
2022/01/08 10:05:15;;;;;;;33.05;12.32;;;;;;;1.33;95.76;100943.28;4991453;28;20038;-75
2022/01/08 10:07:41;;;;;;;34.55;12.60;;;;;;;1.37;95.32;100939.59;4988571;28;20404;-76
2022/01/08 10:10:15;;;;;;;31.80;13.18;;;;;;;1.41;95.74;100926.03;4989747;28;20018;-76
2022/01/08 10:12:59;;;;;;;32.40;13.10;;;;;;;1.46;95.63;100921.41;4982204;28;20041;-76
2022/01/08 10:18:33;;;;;;;31.27;12.82;;;;;;;1.53;95.48;100893.44;4991063;28;20037;-76
2022/01/08 10:21:02;;;;;;;36.40;13.70;;;;;;;1.62;95.58;100894.06;4984841;28;20023;-74
2022/01/08 10:23:31;;;;;;;40.90;13.93;;;;;;;1.67;95.47;100874.19;4986668;28;20030;-75
2022/01/08 10:26:05;;;;;;;35.13;14.60;;;;;;;1.70;95.10;100865.16;4983732;28;20106;-74
2022/01/08 10:28:47;;;;;;;26.65;12.68;;;;;;;1.75;94.52;100866.75;4990243;28;20054;-75
2022/01/08 10:31:23;;;;;;;27.23;13.30;;;;;;;1.79;94.44;100860.34;4988364;28;20045;-77
2022/01/08 10:34:15;;;;;;;31.92;13.35;;;;;;;1.86;94.87;100863.69;4989568;28;20022;-74
2022/01/08 10:36:42;;;;;;;31.00;12.82;;;;;;;1.91;94.67;100860.81;4985838;28;20521;-76
2022/01/08 10:39:18;;;;;;;32.97;13.95;;;;;;;1.94;93.81;100848.19;4990587;28;20038;-74
2022/01/08 10:41:46;;;;;;;36.45;13.25;;;;;;;1.98;94.71;100847.16;4974074;28;20035;-74
2022/01/08 10:44:13;;;;;;;32.17;13.57;;;;;;;2.00;94.01;100833.66;4982719;28;20117;-75
2022/01/08 10:46:42;;;;;;;36.05;13.75;;;;;;;2.03;93.84;100825.50;4990149;28;20030;-74
2022/01/08 10:49:07;;;;;;;33.17;13.65;;;;;;;2.05;93.61;100820.94;4990099;28;20057;-75
2022/01/08 10:51:36;;;;;;;28.65;12.82;;;;;;;2.08;93.65;100815.47;4988004;28;20030;-75
2022/01/08 10:54:08;;;;;;;36.00;14.40;;;;;;;2.12;93.78;100806.38;4983817;28;20030;-75
2022/01/08 10:56:44;;;;;;;30.13;12.60;;;;;;;2.17;93.70;100798.16;4981817;28;20026;-75
2022/01/08 10:59:12;;;;;;;28.60;11.90;;;;;;;2.20;93.51;100804.28;4977849;28;20034;-74
2022/01/08 11:01:39;;;;;;;24.98;11.77;;;;;;;2.22;93.25;100785.44;4985624;28;20065;-76
2022/01/08 11:04:07;;;;;;;27.60;11.93;;;;;;;2.26;93.28;100779.88;4990708;28;20112;-75
2022/01/08 11:06:33;;;;;;;23.88;11.13;;;;;;;2.27;93.41;100773.56;4983073;28;20031;-75
2022/01/08 11:09:02;;;;;;;27.80;11.52;;;;;;;2.32;93.29;100769.84;4990350;28;20020;-76
2022/01/08 11:11:31;;;;;;;20.63;9.95;;;;;;;2.36;93.07;100768.78;4984199;28;20030;-75
2022/01/08 11:14:06;;;;;;;24.08;10.98;;;;;;;2.39;93.13;100761.47;4989377;28;20028;-75
2022/01/08 11:16:32;;;;;;;22.88;10.48;;;;;;;2.42;92.76;100752.41;4979252;28;20097;-75
2022/01/08 11:19:00;;;;;;;22.88;10.32;;;;;;;2.48;93.09;100745.00;4989591;28;20030;-75
2022/01/08 11:21:31;;;;;;;20.38;10.07;;;;;;;2.54;92.63;100734.00;4981623;28;20546;-77
2022/01/08 11:24:01;;;;;;;21.20;10.73;;;;;;;2.57;92.23;100727.66;4989372;28;20032;-75
2022/01/08 11:26:26;;;;;;;18.88;9.65;;;;;;;2.60;91.92;100722.13;4983855;28;20058;-75
2022/01/08 11:28:58;;;;;;;20.75;9.57;;;;;;;2.65;92.06;100717.44;4988019;28;20072;-75
2022/01/08 11:31:27;;;;;;;21.60;9.30;;;;;;;2.78;92.39;100718.69;4982331;28;20073;-75
2022/01/08 11:33:57;;;;;;;20.48;8.93;;;;;;;2.83;91.77;100707.72;4982728;28;20030;-75